createdAt,value
2018-10-03T00:00:15.444Z,53.91
2018-10-03T00:01:15.695Z,54.38
2018-10-03T00:02:15.681Z,53.91
2018-10-03T00:03:15.398Z,53.33
2018-10-03T00:04:15.384Z,52.67
2018-10-03T00:05:15.628Z,52.19
2018-10-03T00:06:15.354Z,52.09
2018-10-03T00:07:15.600Z,51.14
2018-10-03T00:08:15.591Z,51.04
2018-10-03T00:09:15.566Z,50.76
2018-10-03T00:10:15.556Z,49.87
2018-10-03T00:11:15.275Z,49.3
2018-10-03T00:12:15.524Z,48.35
2018-10-03T00:13:15.239Z,47.58
2018-10-03T00:14:15.494Z,46.92
2018-10-03T00:15:15.488Z,46.82
2018-10-03T00:16:15.458Z,47.3
2018-10-03T00:17:15.443Z,47.2
2018-10-03T00:18:15.431Z,45.29
2018-10-03T00:19:15.147Z,45.39
2018-10-03T00:20:15.405Z,45.29
2018-10-03T00:21:15.377Z,45.01
2018-10-03T00:22:15.363Z,44.44
2018-10-03T00:23:15.418Z,44.44
2018-10-03T00:24:15.334Z,44.44
2018-10-03T00:25:15.322Z,43.96
2018-10-03T00:26:15.301Z,44.34
2018-10-03T00:27:15.285Z,44.34
2018-10-03T00:28:15.010Z,43.96
2018-10-03T00:29:15.263Z,44.06
2018-10-03T00:30:14.978Z,43.87
2018-10-03T00:31:15.230Z,43.77
2018-10-03T00:32:15.215Z,43.49
2018-10-03T00:33:15.192Z,43.58
2018-10-03T00:34:14.911Z,43.68
2018-10-03T00:35:15.162Z,43.1
2018-10-03T00:36:15.145Z,43.58
2018-10-03T00:37:15.135Z,43.39
2018-10-03T00:38:14.850Z,43.49
2018-10-03T00:39:15.099Z,43.77
2018-10-03T00:40:14.822Z,43.79
2018-10-03T00:41:14.801Z,43.22
2018-10-03T00:42:15.050Z,43.32
2018-10-03T00:43:14.772Z,43.32
2018-10-03T00:44:14.757Z,43.22
2018-10-03T00:45:15.008Z,42.84
2018-10-03T00:46:14.986Z,43.32
2018-10-03T00:47:14.975Z,43.13
2018-10-03T00:48:14.694Z,43.77
2018-10-03T00:49:14.677Z,43.41
2018-10-03T00:50:14.673Z,42.63
2018-10-03T00:51:14.916Z,43.03
2018-10-03T00:52:14.895Z,43.49
2018-10-03T00:53:14.889Z,43.39
2018-10-03T00:54:14.861Z,43.1
2018-10-03T00:55:14.848Z,43.29
2018-10-03T00:56:14.829Z,42.15
2018-10-03T00:57:14.817Z,42.15
2018-10-03T00:58:14.804Z,42.15
2018-10-03T00:59:14.524Z,42.05
2018-10-03T01:00:14.768Z,41.29
2018-10-03T01:01:14.493Z,41.39
2018-10-03T01:02:14.472Z,41
2018-10-03T01:03:14.457Z,40.24
2018-10-03T01:04:14.704Z,40.53
2018-10-03T01:05:14.695Z,40.05
2018-10-03T01:06:14.410Z,39.67
2018-10-03T01:07:14.393Z,40.05
2018-10-03T01:08:14.645Z,38.81
2018-10-03T01:09:14.630Z,38.43
2018-10-03T01:10:14.647Z,38.34
2018-10-03T01:11:14.609Z,37.66
2018-10-03T01:12:14.589Z,37.66
2018-10-03T01:13:14.566Z,37.66
2018-10-03T01:14:14.548Z,37.38
2018-10-03T01:15:14.271Z,37.19
2018-10-03T01:16:14.516Z,36.81
2018-10-03T01:17:14.503Z,36.81
2018-10-03T01:18:14.221Z,36.43
2018-10-03T01:19:14.471Z,35.76
2018-10-03T01:20:14.472Z,35.57
2018-10-03T01:21:14.174Z,35
2018-10-03T01:22:14.426Z,35
2018-10-03T01:23:14.408Z,34.52
2018-10-03T01:24:14.125Z,34.05
2018-10-03T01:25:14.376Z,34.05
2018-10-03T01:26:14.364Z,34.14
2018-10-03T01:27:14.341Z,33.95
2018-10-03T01:28:14.331Z,33.85
2018-10-03T01:29:14.046Z,33.76
2018-10-03T01:30:14.299Z,33.76
2018-10-03T01:31:14.278Z,33.76
2018-10-03T01:32:13.999Z,33.66
2018-10-03T01:33:13.983Z,33.76
2018-10-03T01:34:14.237Z,33.95
2018-10-03T01:35:13.959Z,34.05
2018-10-03T01:36:14.211Z,34.05
2018-10-03T01:37:13.927Z,34.05
2018-10-03T01:38:13.912Z,34.14
2018-10-03T01:39:14.152Z,34.61
2018-10-03T01:40:14.144Z,34.71
2018-10-03T01:41:14.122Z,34.9
2018-10-03T01:42:14.103Z,34.9
2018-10-03T01:43:13.830Z,34.9
2018-10-03T01:44:14.072Z,35.38
2018-10-03T01:45:14.060Z,35.47
2018-10-03T01:46:13.779Z,35.38
2018-10-03T01:47:14.025Z,35.86
2018-10-03T01:48:14.009Z,35.47
2018-10-03T01:49:13.730Z,35.76
2018-10-03T01:50:13.975Z,35.66
2018-10-03T01:51:13.699Z,35.66
2018-10-03T01:52:13.947Z,35.66
2018-10-03T01:53:13.929Z,36.05
2018-10-03T01:54:13.650Z,36.33
2018-10-03T01:55:13.897Z,35.95
2018-10-03T01:56:13.884Z,36.43
2018-10-03T01:57:13.864Z,36.62
2018-10-03T01:58:13.848Z,36.9
2018-10-03T01:59:13.571Z,37.21
2018-10-03T02:00:13.825Z,37.21
2018-10-03T02:01:13.799Z,37.59
2018-10-03T02:02:13.525Z,37.4
2018-10-03T02:03:13.775Z,37.59
2018-10-03T02:04:13.493Z,37.59
2018-10-03T02:05:13.738Z,38.07
2018-10-03T02:06:13.722Z,37.97
2018-10-03T02:07:13.442Z,38.17
2018-10-03T02:08:13.425Z,38.26
2018-10-03T02:09:13.409Z,38.45
2018-10-03T02:10:13.399Z,38.64
2018-10-03T02:11:13.378Z,38.35
2018-10-03T02:12:13.364Z,38.54
2018-10-03T02:13:13.612Z,38.83
2018-10-03T02:14:13.598Z,38.73
2018-10-03T02:15:13.316Z,38.83
2018-10-03T02:16:13.299Z,38.93
2018-10-03T02:17:13.550Z,39.12
2018-10-03T02:18:13.270Z,39.12
2018-10-03T02:19:13.521Z,39.31
2018-10-03T02:20:13.240Z,38.93
2018-10-03T02:21:13.221Z,39.02
2018-10-03T02:22:13.206Z,38.73
2018-10-03T02:23:13.459Z,38.93
2018-10-03T02:24:13.438Z,38.73
2018-10-03T02:25:13.426Z,38.83
2018-10-03T02:26:13.142Z,38.73
2018-10-03T02:27:13.393Z,38.73
2018-10-03T02:28:13.114Z,38.93
2018-10-03T02:29:13.362Z,38.83
2018-10-03T02:30:13.347Z,39.02
2018-10-03T02:31:13.331Z,38.93
2018-10-03T02:32:13.317Z,38.93
2018-10-03T02:33:13.297Z,39.31
2018-10-03T02:34:13.016Z,39.31
2018-10-03T02:35:13.266Z,39.78
2018-10-03T02:36:13.258Z,39.69
2018-10-03T02:37:13.236Z,39.88
2018-10-03T02:38:13.228Z,40.17
2018-10-03T02:39:13.211Z,40.07
2018-10-03T02:40:13.191Z,39.88
2018-10-03T02:41:12.916Z,39.98
2018-10-03T02:42:12.892Z,39.69
2018-10-03T02:43:12.880Z,40.55
2018-10-03T02:44:13.135Z,41.22
2018-10-03T02:45:13.137Z,40.93
2018-10-03T02:46:13.100Z,41.22
2018-10-03T02:47:13.077Z,40.93
2018-10-03T02:48:13.062Z,41.31
2018-10-03T02:49:12.787Z,41.41
2018-10-03T02:50:13.032Z,41.6
2018-10-03T02:51:13.018Z,41.6
2018-10-03T02:52:13.002Z,41.31
2018-10-03T02:53:12.984Z,41.22
2018-10-03T02:54:12.705Z,41.6
2018-10-03T02:55:12.960Z,41.41
2018-10-03T02:56:12.678Z,41.5
2018-10-03T02:57:12.928Z,41.41
2018-10-03T02:58:12.913Z,41.41
2018-10-03T02:59:12.623Z,41.31
2018-10-03T03:00:12.875Z,41.31
2018-10-03T03:01:12.867Z,41.22
2018-10-03T03:02:12.594Z,41.5
2018-10-03T03:03:12.567Z,41.41
2018-10-03T03:04:12.821Z,41.31
2018-10-03T03:05:12.802Z,41.41
2018-10-03T03:06:12.723Z,40.93
2018-10-03T03:07:12.506Z,41.03
2018-10-03T03:08:12.490Z,41.22
2018-10-03T03:09:12.836Z,41.22
2018-10-03T03:10:12.720Z,41.03
2018-10-03T03:11:12.436Z,40.74
2018-10-03T03:12:12.423Z,40.83
2018-10-03T03:13:12.672Z,40.64
2018-10-03T03:14:12.655Z,40.83
2018-10-03T03:15:12.643Z,40.55
2018-10-03T03:16:12.625Z,41.03
2018-10-03T03:17:12.618Z,41.12
2018-10-03T03:18:12.327Z,41.03
2018-10-03T03:19:12.313Z,41.31
2018-10-03T03:20:12.296Z,41.31
2018-10-03T03:21:12.546Z,40.17
2018-10-03T03:22:12.267Z,39.98
2018-10-03T03:23:12.253Z,40.07
2018-10-03T03:24:12.499Z,39.78
2018-10-03T03:25:12.219Z,39.29
2018-10-03T03:26:12.206Z,39.31
2018-10-03T03:27:12.185Z,39.02
2018-10-03T03:28:12.173Z,38.73
2018-10-03T03:29:12.424Z,38.64
2018-10-03T03:30:12.141Z,38.64
2018-10-03T03:31:12.394Z,38.73
2018-10-03T03:32:12.373Z,38.73
2018-10-03T03:33:12.365Z,38.45
2018-10-03T03:34:12.339Z,38.64
2018-10-03T03:35:12.324Z,38.64
2018-10-03T03:36:12.310Z,38.35
2018-10-03T03:37:12.599Z,38.45
2018-10-03T03:38:12.012Z,38.45
2018-10-03T03:39:12.264Z,38.34
2018-10-03T03:40:12.248Z,38.43
2018-10-03T03:41:11.967Z,38.26
2018-10-03T03:42:11.957Z,38.17
2018-10-03T03:43:11.945Z,37.95
2018-10-03T03:44:12.183Z,37.97
2018-10-03T03:45:11.907Z,37.78
2018-10-03T03:46:12.158Z,37.49
2018-10-03T03:47:12.133Z,37.4
2018-10-03T03:48:12.126Z,37.4
2018-10-03T03:49:12.102Z,37.4
2018-10-03T03:50:12.091Z,37.12
2018-10-03T03:51:12.081Z,37.12
2018-10-03T03:52:11.843Z,36.9
2018-10-03T03:53:12.050Z,37.21
2018-10-03T03:54:12.030Z,37.02
2018-10-03T03:55:12.022Z,36.62
2018-10-03T03:56:12.028Z,36.43
2018-10-03T03:57:11.979Z,36.16
2018-10-03T03:58:11.965Z,36.33
2018-10-03T03:59:11.687Z,36.05
2018-10-03T04:00:11.669Z,36.62
2018-10-03T04:01:11.915Z,36.16
2018-10-03T04:02:11.899Z,36.35
2018-10-03T04:03:11.891Z,36.44
2018-10-03T04:04:11.604Z,36.83
2018-10-03T04:05:11.592Z,37.02
2018-10-03T04:06:11.578Z,36.73
2018-10-03T04:07:11.556Z,36.64
2018-10-03T04:08:11.815Z,36.16
2018-10-03T04:09:11.808Z,36.35
2018-10-03T04:10:11.518Z,36.05
2018-10-03T04:11:11.759Z,36.24
2018-10-03T04:12:11.757Z,36.25
2018-10-03T04:13:11.727Z,35.87
2018-10-03T04:14:11.453Z,36.25
2018-10-03T04:15:11.432Z,36.44
2018-10-03T04:16:11.683Z,36.33
2018-10-03T04:17:11.677Z,36.35
2018-10-03T04:18:11.653Z,36.25
2018-10-03T04:19:11.640Z,36.35
2018-10-03T04:20:11.617Z,36.25
2018-10-03T04:21:11.607Z,36.44
2018-10-03T04:22:11.330Z,36.54
2018-10-03T04:23:11.319Z,36.35
2018-10-03T04:24:11.300Z,36.16
2018-10-03T04:25:11.537Z,36.07
2018-10-03T04:26:11.534Z,36.25
2018-10-03T04:27:11.509Z,35.66
2018-10-03T04:28:11.231Z,35.78
2018-10-03T04:29:11.474Z,35.78
2018-10-03T04:30:11.196Z,35.68
2018-10-03T04:31:11.180Z,35.76
2018-10-03T04:32:11.429Z,35.59
2018-10-03T04:33:11.147Z,35.39
2018-10-03T04:34:11.400Z,35.3
2018-10-03T04:35:11.457Z,34.81
2018-10-03T04:36:11.104Z,34.82
2018-10-03T04:37:11.089Z,35.02
2018-10-03T04:38:11.352Z,34.81
2018-10-03T04:39:11.323Z,34.71
2018-10-03T04:40:11.324Z,34.54
2018-10-03T04:41:11.287Z,34.06
2018-10-03T04:42:11.068Z,33.97
2018-10-03T04:43:10.991Z,34.16
2018-10-03T04:44:11.239Z,34.14
2018-10-03T04:45:11.226Z,33.95
2018-10-03T04:46:11.210Z,33.87
2018-10-03T04:47:11.194Z,33.76
2018-10-03T04:48:10.911Z,33.66
2018-10-03T04:49:10.975Z,33.78
2018-10-03T04:50:11.223Z,33.37
2018-10-03T04:51:11.129Z,33.57
2018-10-03T04:52:10.847Z,33.66
2018-10-03T04:53:10.872Z,33.57
2018-10-03T04:54:10.823Z,33.37
2018-10-03T04:55:11.066Z,33.28
2018-10-03T04:56:10.787Z,33.47
2018-10-03T04:57:11.033Z,33.37
2018-10-03T04:58:11.020Z,33.28
2018-10-03T04:59:11.006Z,33.37
2018-10-03T05:00:11.198Z,33.37
2018-10-03T05:01:10.707Z,33.57
2018-10-03T05:02:10.973Z,34.05
2018-10-03T05:03:10.677Z,33.85
2018-10-03T05:04:10.931Z,33.95
2018-10-03T05:05:10.909Z,34.14
2018-10-03T05:06:11.124Z,34.14
2018-10-03T05:07:10.883Z,33.95
2018-10-03T05:08:10.596Z,33.95
2018-10-03T05:09:10.846Z,34.71
2018-10-03T05:10:10.572Z,35
2018-10-03T05:11:10.852Z,34.9
2018-10-03T05:12:10.806Z,35.28
2018-10-03T05:13:10.785Z,35.47
2018-10-03T05:14:10.768Z,35.95
2018-10-03T05:15:10.755Z,35.57
2018-10-03T05:16:10.734Z,35.47
2018-10-03T05:17:10.721Z,35.57
2018-10-03T05:18:10.704Z,35.57
2018-10-03T05:19:10.686Z,35.38
2018-10-03T05:20:10.677Z,35.1
2018-10-03T05:21:10.669Z,34.9
2018-10-03T05:22:10.638Z,34.71
2018-10-03T05:23:10.623Z,34.9
2018-10-03T05:24:10.345Z,34.81
2018-10-03T05:25:10.596Z,34.61
2018-10-03T05:26:10.580Z,34.05
2018-10-03T05:27:10.575Z,34.14
2018-10-03T05:28:10.545Z,34.14
2018-10-03T05:29:10.533Z,34.05
2018-10-03T05:30:10.530Z,34.14
2018-10-03T05:31:10.236Z,34.05
2018-10-03T05:32:10.499Z,34.05
2018-10-03T05:33:10.268Z,34.05
2018-10-03T05:34:10.458Z,34.05
2018-10-03T05:35:10.196Z,33.95
2018-10-03T05:36:10.169Z,34.14
2018-10-03T05:37:10.417Z,33.85
2018-10-03T05:38:10.138Z,33.85
2018-10-03T05:39:10.105Z,34.14
2018-10-03T05:40:10.103Z,34.05
2018-10-03T05:41:10.077Z,34.23
2018-10-03T05:42:10.321Z,34.05
2018-10-03T05:43:10.321Z,34.14
2018-10-03T05:44:10.291Z,34.05
2018-10-03T05:45:10.014Z,34.61
2018-10-03T05:46:10.261Z,34.71
2018-10-03T05:47:10.249Z,35
2018-10-03T05:48:09.988Z,34.9
2018-10-03T05:49:10.217Z,35.19
2018-10-03T05:50:09.938Z,34.71
2018-10-03T05:51:09.918Z,35.1
2018-10-03T05:52:09.901Z,35
2018-10-03T05:53:10.153Z,35.28
2018-10-03T05:54:10.140Z,35.38
2018-10-03T05:55:10.128Z,35.38
2018-10-03T05:56:10.101Z,35.38
2018-10-03T05:57:09.823Z,35.38
2018-10-03T05:58:10.073Z,35.76
2018-10-03T05:59:09.791Z,35.76
2018-10-03T06:00:09.776Z,35.86
2018-10-03T06:01:09.759Z,35.57
2018-10-03T06:02:09.742Z,35.66
2018-10-03T06:03:09.992Z,35.47
2018-10-03T06:04:09.914Z,35.57
2018-10-03T06:05:09.695Z,35.86
2018-10-03T06:06:09.683Z,36.24
2018-10-03T06:07:09.665Z,36.14
2018-10-03T06:08:09.649Z,37.48
2018-10-03T06:09:09.631Z,37.76
2018-10-03T06:10:09.882Z,37.66
2018-10-03T06:11:09.601Z,38.24
2018-10-03T06:12:10.009Z,37.66
2018-10-03T06:13:09.571Z,37.66
2018-10-03T06:14:09.818Z,37.76
2018-10-03T06:15:09.543Z,37.95
2018-10-03T06:16:09.784Z,37.86
2018-10-03T06:17:09.506Z,38.34
2018-10-03T06:18:09.756Z,38.91
2018-10-03T06:19:09.749Z,39.19
2018-10-03T06:20:09.461Z,39.19
2018-10-03T06:21:09.705Z,39.67
2018-10-03T06:22:09.432Z,39.95
2018-10-03T06:23:09.679Z,40.53
2018-10-03T06:24:09.404Z,40.83
2018-10-03T06:25:09.644Z,40.91
2018-10-03T06:26:09.367Z,41
2018-10-03T06:27:09.352Z,41.69
2018-10-03T06:28:09.730Z,41.98
2018-10-03T06:29:09.584Z,41.58
2018-10-03T06:30:09.307Z,41.79
2018-10-03T06:31:09.291Z,41.6
2018-10-03T06:32:09.277Z,41.69
2018-10-03T06:33:09.524Z,41.98
2018-10-03T06:34:09.246Z,42.08
2018-10-03T06:35:09.227Z,42.17
2018-10-03T06:36:09.210Z,42.46
2018-10-03T06:37:09.462Z,42.93
2018-10-03T06:38:09.440Z,43.6
2018-10-03T06:39:09.164Z,43.51
2018-10-03T06:40:09.150Z,44.08
2018-10-03T06:41:09.397Z,44.56
2018-10-03T06:42:09.388Z,44.56
2018-10-03T06:43:09.101Z,44.65
2018-10-03T06:44:09.358Z,43.89
2018-10-03T06:45:09.332Z,44.37
2018-10-03T06:46:09.055Z,44.46
2018-10-03T06:47:09.305Z,44.37
2018-10-03T06:48:09.288Z,45.13
2018-10-03T06:49:09.007Z,44.94
2018-10-03T06:50:08.993Z,45.51
2018-10-03T06:51:09.244Z,45.42
2018-10-03T06:52:09.231Z,45.51
2018-10-03T06:53:09.210Z,45.61
2018-10-03T06:54:09.195Z,46.08
2018-10-03T06:55:08.916Z,46.94
2018-10-03T06:56:09.169Z,46.94
2018-10-03T06:57:08.891Z,47.13
2018-10-03T06:58:08.873Z,46.94
2018-10-03T06:59:08.857Z,47.8
2018-10-03T07:00:09.109Z,47.42
2018-10-03T07:01:09.090Z,48.08
2018-10-03T07:02:09.072Z,48.28
2018-10-03T07:03:08.798Z,48.37
2018-10-03T07:04:08.781Z,48.47
2018-10-03T07:05:09.033Z,48.28
2018-10-03T07:06:09.213Z,49.52
2018-10-03T07:07:08.999Z,48.85
2018-10-03T07:08:08.716Z,49.8
2018-10-03T07:09:08.969Z,49.9
2018-10-03T07:10:08.684Z,50.18
2018-10-03T07:11:08.933Z,50.38
2018-10-03T07:12:08.917Z,50.57
2018-10-03T07:13:09.033Z,51.23
2018-10-03T07:14:08.889Z,50.28
2018-10-03T07:15:08.873Z,51.43
2018-10-03T07:16:08.856Z,51.33
2018-10-03T07:17:08.579Z,52.57
2018-10-03T07:18:08.835Z,53.24
2018-10-03T07:19:08.548Z,52.95
2018-10-03T07:20:08.566Z,52.76
2018-10-03T07:21:08.784Z,52.57
2018-10-03T07:22:08.772Z,52.09
2018-10-03T07:23:08.761Z,52.57
2018-10-03T07:24:08.744Z,53.81
2018-10-03T07:25:08.461Z,54.19
2018-10-03T07:26:08.789Z,56.96
2018-10-03T07:27:08.691Z,55.62
2018-10-03T07:28:08.681Z,56.1
2018-10-03T07:29:08.663Z,55.94
2018-10-03T07:30:08.383Z,57.94
2018-10-03T07:31:08.634Z,57.75
2018-10-03T07:32:08.353Z,57.46
2018-10-03T07:33:08.607Z,59.56
2018-10-03T07:34:08.328Z,60.04
2018-10-03T07:35:08.571Z,61.95
2018-10-03T07:36:08.562Z,60.24
2018-10-03T07:37:08.280Z,61.47
2018-10-03T07:38:08.268Z,62.34
2018-10-03T07:39:08.514Z,60.61
2018-10-03T07:40:08.505Z,60.81
2018-10-03T07:41:08.483Z,65.87
2018-10-03T07:42:08.205Z,66.82
2018-10-03T07:43:08.193Z,66.35
2018-10-03T07:44:08.536Z,65.77
2018-10-03T07:45:08.429Z,65.01
2018-10-03T07:46:08.414Z,64.53
2018-10-03T07:47:08.398Z,64.43
2018-10-03T07:48:08.520Z,63.76
2018-10-03T07:49:08.378Z,65.87
2018-10-03T07:50:08.370Z,66.53
2018-10-03T07:51:08.339Z,67.21
2018-10-03T07:52:08.319Z,67.11
2018-10-03T07:53:08.044Z,68.63
2018-10-03T07:54:08.030Z,67.97
2018-10-03T07:55:08.274Z,67.11
2018-10-03T07:56:08.325Z,70.26
2018-10-03T07:57:08.250Z,70.26
2018-10-03T07:58:08.241Z,67.87
2018-10-03T07:59:08.242Z,70.92
2018-10-03T08:00:07.955Z,69.62
2018-10-03T08:01:07.923Z,67.01
2018-10-03T08:02:07.906Z,68.16
2018-10-03T08:03:08.162Z,69.97
2018-10-03T08:04:07.878Z,70.92
2018-10-03T08:05:07.861Z,70.67
2018-10-03T08:06:07.845Z,71.92
2018-10-03T08:07:08.096Z,74.21
2018-10-03T08:08:08.099Z,73.54
2018-10-03T08:09:08.065Z,73.83
2018-10-03T08:10:07.870Z,75.07
2018-10-03T08:11:07.776Z,76.4
2018-10-03T08:12:07.758Z,73.44
2018-10-03T08:13:07.744Z,72.58
2018-10-03T08:14:07.732Z,73.63
2018-10-03T08:15:07.723Z,75.07
2018-10-03T08:16:07.700Z,76.69
2018-10-03T08:17:07.955Z,74.78
2018-10-03T08:18:07.676Z,73.25
2018-10-03T08:19:07.655Z,77.08
2018-10-03T08:20:07.910Z,74.69
2018-10-03T08:21:07.628Z,74.88
2018-10-03T08:22:07.621Z,74.4
2018-10-03T08:23:07.599Z,76.4
2018-10-03T08:24:07.591Z,75.35
2018-10-03T08:25:07.572Z,74.4
2018-10-03T08:26:07.559Z,74.59
2018-10-03T08:27:07.544Z,74.69
2018-10-03T08:28:07.524Z,75.83
2018-10-03T08:29:07.782Z,74.78
2018-10-03T08:30:07.553Z,75.1
2018-10-03T08:31:07.486Z,76.35
2018-10-03T08:32:07.670Z,75.59
2018-10-03T08:33:07.807Z,75.3
2018-10-03T08:34:07.442Z,75.3
2018-10-03T08:35:07.695Z,75.39
2018-10-03T08:36:07.680Z,78.07
2018-10-03T08:37:07.665Z,78.93
2018-10-03T08:38:07.648Z,80.46
2018-10-03T08:39:07.634Z,80.36
2018-10-03T08:40:07.355Z,83.33
2018-10-03T08:41:07.340Z,85.52
2018-10-03T08:42:07.589Z,83.8
2018-10-03T08:43:07.585Z,84.56
2018-10-03T08:44:07.560Z,83.33
2018-10-03T08:45:07.283Z,85.71
2018-10-03T08:46:07.537Z,84.47
2018-10-03T08:47:07.255Z,84.56
2018-10-03T08:48:07.514Z,81.79
2018-10-03T08:49:07.228Z,80.27
2018-10-03T08:50:07.481Z,81.26
2018-10-03T08:51:07.464Z,86.1
2018-10-03T08:52:07.454Z,84.61
2018-10-03T08:53:07.436Z,86.43
2018-10-03T08:54:07.426Z,85.47
2018-10-03T08:55:07.145Z,84.32
2018-10-03T08:56:07.393Z,88.43
2018-10-03T08:57:07.385Z,93.69
2018-10-03T08:58:07.489Z,98.75
2018-10-03T08:59:07.092Z,93.31
2018-10-03T09:00:07.349Z,93.5
2018-10-03T09:01:07.328Z,93.12
2018-10-03T09:02:07.313Z,91.3
2018-10-03T09:03:07.306Z,91.88
2018-10-03T09:04:07.020Z,95.12
2018-10-03T09:05:07.271Z,94.55
2018-10-03T09:06:07.465Z,99.04
2018-10-03T09:07:06.983Z,98.57
2018-10-03T09:08:06.966Z,98.66
2018-10-03T09:09:06.952Z,99.99
2018-10-03T09:10:07.202Z,98.28
2018-10-03T09:11:07.190Z,97.04
2018-10-03T09:12:07.176Z,98.38
2018-10-03T09:13:06.897Z,99.14
2018-10-03T09:14:07.158Z,97.61
2018-10-03T09:15:07.138Z,98.85
2018-10-03T09:16:06.859Z,97.61
2018-10-03T09:17:07.111Z,97.71
2018-10-03T09:18:07.099Z,96.56
2018-10-03T09:19:06.821Z,98.66
2018-10-03T09:20:07.080Z,98.85
2018-10-03T09:21:06.792Z,99.62
2018-10-03T09:22:07.051Z,99.99
2018-10-03T09:23:07.031Z,99.99
2018-10-03T09:24:06.754Z,99.81
2018-10-03T09:25:06.740Z,99.99
2018-10-03T09:26:06.725Z,99.99
2018-10-03T09:27:06.983Z,99.99
2018-10-03T09:28:06.699Z,99.99
2018-10-03T09:29:06.690Z,99.99
2018-10-03T09:30:06.937Z,99.99
2018-10-03T09:31:06.941Z,99.99
2018-10-03T09:32:06.917Z,99.99
2018-10-03T09:33:06.898Z,99.99
2018-10-03T09:34:06.886Z,99.99
2018-10-03T09:35:06.610Z,99.99
2018-10-03T09:36:06.596Z,99.99
2018-10-03T09:37:06.584Z,99.99
2018-10-03T09:38:06.836Z,99.99
2018-10-03T09:39:06.826Z,99.99
2018-10-03T09:40:06.546Z,99.99
2018-10-03T09:41:06.802Z,99.99
2018-10-03T09:42:06.781Z,99.99
2018-10-03T09:43:06.769Z,99.99
2018-10-03T09:44:06.494Z,99.99
2018-10-03T09:45:06.747Z,99.99
2018-10-03T09:46:06.466Z,99.99
2018-10-03T09:47:06.453Z,99.99
2018-10-03T09:48:06.439Z,99.99
2018-10-03T09:49:06.428Z,99.99
2018-10-03T09:50:06.681Z,99.99
2018-10-03T09:51:06.676Z,99.99
2018-10-03T09:52:06.653Z,99.99
2018-10-03T09:53:06.640Z,99.99
2018-10-03T09:54:06.635Z,99.99
2018-10-03T09:55:06.352Z,99.99
2018-10-03T09:56:06.349Z,99.99
2018-10-03T09:57:06.598Z,99.99
2018-10-03T09:58:06.331Z,99.99
2018-10-03T09:59:06.567Z,99.99
2018-10-03T10:00:06.558Z,99.99
2018-10-03T10:01:06.281Z,99.99
2018-10-03T10:02:06.534Z,99.99
2018-10-03T10:03:06.524Z,99.99
2018-10-03T10:04:06.503Z,99.99
2018-10-03T10:05:06.509Z,99.99
2018-10-03T10:06:06.483Z,99.99
2018-10-03T10:07:06.201Z,99.99
2018-10-03T10:08:06.193Z,99.99
2018-10-03T10:09:06.441Z,99.99
2018-10-03T10:10:06.499Z,99.99
2018-10-03T10:11:06.244Z,99.99
2018-10-03T10:12:06.138Z,99.99
2018-10-03T10:13:06.124Z,99.99
2018-10-03T10:14:06.113Z,99.99
2018-10-03T10:15:06.364Z,99.99
2018-10-03T10:16:06.086Z,99.99
2018-10-03T10:17:06.343Z,99.99
2018-10-03T10:18:06.061Z,99.99
2018-10-03T10:19:06.324Z,99.99
2018-10-03T10:20:06.304Z,99.99
2018-10-03T10:21:06.292Z,99.99
2018-10-03T10:22:06.279Z,99.99
2018-10-03T10:23:06.270Z,99.99
2018-10-03T10:24:05.998Z,99.99
2018-10-03T10:25:06.245Z,99.99
2018-10-03T10:26:06.233Z,99.99
2018-10-03T10:27:05.952Z,99.99
2018-10-03T10:28:05.941Z,99.99
2018-10-03T10:29:06.195Z,99.99
2018-10-03T10:30:06.183Z,99.99
2018-10-03T10:31:05.907Z,99.99
2018-10-03T10:32:06.260Z,99.99
2018-10-03T10:33:06.419Z,99.99
2018-10-03T10:34:05.869Z,99.99
2018-10-03T10:35:05.859Z,99.99
2018-10-03T10:36:06.115Z,99.99
2018-10-03T10:37:05.837Z,99.99
2018-10-03T10:38:06.104Z,99.99
2018-10-03T10:39:06.086Z,99.99
2018-10-03T10:40:06.246Z,99.99
2018-10-03T10:41:05.872Z,99.99
2018-10-03T10:42:05.783Z,99.99
2018-10-03T10:43:05.769Z,99.99
2018-10-03T10:44:06.028Z,99.99
2018-10-03T10:45:06.017Z,99.99
2018-10-03T10:46:05.739Z,99.99
2018-10-03T10:47:06.000Z,99.99
2018-10-03T10:48:05.978Z,99.99
2018-10-03T10:49:05.709Z,99.99
2018-10-03T10:50:05.997Z,99.99
2018-10-03T10:51:05.947Z,99.99
2018-10-03T10:52:05.938Z,99.99
2018-10-03T10:53:05.923Z,99.99
2018-10-03T10:54:05.910Z,99.99
2018-10-03T10:55:05.907Z,99.99
2018-10-03T10:56:05.626Z,99.99
2018-10-03T10:57:05.885Z,99.99
2018-10-03T10:58:05.605Z,99.99
2018-10-03T10:59:05.592Z,99.99
2018-10-03T11:00:05.845Z,99.99
2018-10-03T11:01:05.837Z,99.99
2018-10-03T11:02:05.559Z,99.99
2018-10-03T11:03:05.819Z,99.99
2018-10-03T11:04:05.809Z,99.99
2018-10-03T11:05:05.792Z,99.99
2018-10-03T11:06:06.054Z,99.99
2018-10-03T11:07:05.772Z,99.99
2018-10-03T11:08:05.760Z,99.99
2018-10-03T11:09:05.748Z,99.99
2018-10-03T11:10:05.472Z,99.99
2018-10-03T11:11:05.730Z,99.99
2018-10-03T11:12:05.709Z,99.99
2018-10-03T11:13:05.441Z,99.99
2018-10-03T11:14:05.432Z,99.99
2018-10-03T11:15:05.417Z,99.99
2018-10-03T11:16:05.672Z,99.99
2018-10-03T11:17:05.803Z,99.99
2018-10-03T11:18:05.663Z,99.99
2018-10-03T11:19:05.634Z,99.99
2018-10-03T11:20:05.628Z,99.99
2018-10-03T11:21:05.352Z,99.99
2018-10-03T11:22:05.608Z,99.99
2018-10-03T11:23:05.329Z,99.99
2018-10-03T11:24:05.467Z,99.99
2018-10-03T11:25:05.312Z,99.99
2018-10-03T11:26:05.560Z,99.99
2018-10-03T11:27:05.285Z,99.99
2018-10-03T11:28:05.537Z,99.99
2018-10-03T11:29:05.264Z,99.99
2018-10-03T11:30:05.257Z,99.99
2018-10-03T11:31:05.513Z,99.99
2018-10-03T11:32:05.277Z,99.99
2018-10-03T11:33:05.486Z,99.99
2018-10-03T11:34:05.495Z,99.99
2018-10-03T11:35:05.472Z,99.99
2018-10-03T11:36:05.195Z,99.99
2018-10-03T11:37:05.454Z,99.99
2018-10-03T11:38:05.569Z,99.99
2018-10-03T11:39:05.160Z,99.99
2018-10-03T11:40:05.421Z,99.99
2018-10-03T11:41:05.139Z,99.99
2018-10-03T11:42:05.396Z,99.99
2018-10-03T11:43:05.119Z,99.99
2018-10-03T11:44:05.387Z,99.99
2018-10-03T11:45:05.103Z,99.99
2018-10-03T11:46:05.359Z,99.99
2018-10-03T11:47:05.078Z,99.99
2018-10-03T11:48:05.069Z,99.99
2018-10-03T11:49:05.052Z,99.43
2018-10-03T11:50:05.315Z,97.42
2018-10-03T11:51:05.300Z,94.35
2018-10-03T11:52:05.023Z,93.59
2018-10-03T11:53:05.283Z,92.54
2018-10-03T11:54:05.006Z,94.07
2018-10-03T11:55:04.995Z,92.49
2018-10-03T11:56:05.249Z,91.34
2018-10-03T11:57:05.028Z,90.28
2018-10-03T11:58:04.971Z,88.08
2018-10-03T11:59:04.963Z,86.01
2018-10-03T12:00:04.958Z,87.07
2018-10-03T12:01:04.940Z,87.84
2018-10-03T12:02:05.198Z,89.51
2018-10-03T12:03:05.104Z,87.01
2018-10-03T12:04:05.187Z,85.33
2018-10-03T12:05:05.176Z,81.49
2018-10-03T12:06:04.908Z,79.61
2018-10-03T12:07:05.161Z,79.71
2018-10-03T12:08:04.885Z,78.27
2018-10-03T12:09:04.898Z,77.34
2018-10-03T12:10:04.880Z,76.29
2018-10-03T12:11:05.137Z,77.83
2018-10-03T12:12:05.131Z,74.6
2018-10-03T12:13:05.126Z,73.15
2018-10-03T12:14:05.133Z,70.98
2018-10-03T12:15:04.854Z,70.4
2018-10-03T12:16:05.119Z,74.54
2018-10-03T12:17:04.842Z,71.01
2018-10-03T12:18:05.103Z,70.05
2018-10-03T12:19:04.841Z,73.16
2018-10-03T12:20:04.833Z,69.7
2018-10-03T12:21:05.094Z,65.69
2018-10-03T12:22:04.824Z,66.65
2018-10-03T12:23:05.086Z,65.59
2018-10-03T12:24:05.080Z,64.05
2018-10-03T12:25:05.161Z,65.2
2018-10-03T12:26:05.091Z,63.95
2018-10-03T12:27:05.080Z,62.8
2018-10-03T12:28:05.075Z,62.9
2018-10-03T12:29:04.811Z,63.57
2018-10-03T12:30:04.801Z,63.89
2018-10-03T12:31:04.804Z,65.46
2018-10-03T12:32:04.799Z,64.73
2018-10-03T12:33:04.797Z,63.76
2018-10-03T12:34:05.061Z,63.21
2018-10-03T12:35:05.066Z,63.12
2018-10-03T12:36:04.804Z,62.45
2018-10-03T12:37:05.062Z,61.99
2018-10-03T12:38:04.790Z,63.18
2018-10-03T12:39:05.071Z,61.77
2018-10-03T12:40:05.055Z,62.41
2018-10-03T12:41:05.054Z,61.83
2018-10-03T12:42:05.054Z,59.83
2018-10-03T12:43:04.789Z,60.13
2018-10-03T12:44:04.790Z,60.38
2018-10-03T12:45:05.323Z,59.87
2018-10-03T12:46:05.057Z,62.28
2018-10-03T12:47:04.787Z,62.12
2018-10-03T12:48:04.825Z,61.06
2018-10-03T12:49:05.047Z,61.16
2018-10-03T12:50:04.788Z,60.89
2018-10-03T12:51:05.052Z,62.41
2018-10-03T12:52:05.049Z,63.89
2018-10-03T12:53:05.048Z,63.34
2018-10-03T12:54:04.785Z,63.92